
<gpx xmlns="http://www.topografix.com/GPX/1/1" xmlns:gpxx="http://www.garmin.com/xmlschemas/GpxExtensions/v3" xmlns:xsi="http://www.w3.org/2001/XMLSchema-instance" version="1.1" creator="Adze - http://kobotsw.com/apps/adze" xsi:schemaLocation="http://www.topografix.com/GPX/1/1 http://www.topografix.com/GPX/1/1/gpx.xsd http://www.garmin.com/xmlschemas/GpxExtensions/v3 http://www.garmin.com/xmlschemas/GpxExtensionsv3.xsd">
    <metadata>
        <name>Untitled Document</name>
        <link href="http://www.garmin.com"></link>
        <time>2018-02-26T06:44:09.677Z</time>
    </metadata>
    <wpt lon="99.853737" lat="14.483341">
        <ele>47.000000</ele>
        <time>2014-05-24T06:05:28Z</time>
        <name>Resort</name>
        <cmt>24-MAY-14 1:05:28PM</cmt>
        <desc>24-MAY-14 1:05:28PM</desc>
        <sym>Lodging</sym>
        <extensions>
            <gpxx:WaypointExtension xmlns:gpxx="http://www.garmin.com/xmlschemas/GpxExtensions/v3">
                <gpxx:DisplayMode>SymbolOnly</gpxx:DisplayMode>
            </gpxx:WaypointExtension>
        </extensions>
    </wpt>
    <trk>
        <name>Sunday</name>
        <extensions>
            <gpxx:TrackExtension xmlns:gpxx="http://www.garmin.com/xmlschemas/GpxExtensions/v3">
                <gpxx:DisplayColor>Green</gpxx:DisplayColor>
            </gpxx:TrackExtension>
        </extensions>
        <trkseg>
            <trkpt lon="99.853719" lat="14.483341">
                <ele>25.610000</ele>
                <time>2014-05-25T02:57:09Z</time>
            </trkpt>
            <trkpt lon="99.853736" lat="14.483346">
                <ele>28.020000</ele>
                <time>2014-05-25T02:57:12Z</time>
            </trkpt>
            <trkpt lon="99.853971" lat="14.483499">
                <ele>30.900000</ele>
                <time>2014-05-25T02:57:24Z</time>
            </trkpt>
            <trkpt lon="99.854437" lat="14.483557">
                <ele>32.340000</ele>
                <time>2014-05-25T02:57:36Z</time>
            </trkpt>
            <trkpt lon="99.854907" lat="14.483332">
                <ele>34.740000</ele>
                <time>2014-05-25T02:57:49Z</time>
            </trkpt>
            <trkpt lon="99.854923" lat="14.482766">
                <ele>35.230000</ele>
                <time>2014-05-25T02:58:01Z</time>
            </trkpt>
            <trkpt lon="99.855075" lat="14.482327">
                <ele>36.670000</ele>
                <time>2014-05-25T02:58:13Z</time>
            </trkpt>
            <trkpt lon="99.855320" lat="14.482068">
                <ele>38.590000</ele>
                <time>2014-05-25T02:58:22Z</time>
            </trkpt>
            <trkpt lon="99.855618" lat="14.481612">
                <ele>39.070000</ele>
                <time>2014-05-25T02:58:38Z</time>
            </trkpt>
            <trkpt lon="99.855957" lat="14.481899">
                <ele>38.590000</ele>
                <time>2014-05-25T02:58:49Z</time>
            </trkpt>
            <trkpt lon="99.855904" lat="14.482304">
                <ele>38.590000</ele>
                <time>2014-05-25T02:58:55Z</time>
            </trkpt>
            <trkpt lon="99.855424" lat="14.483608">
                <ele>37.150000</ele>
                <time>2014-05-25T02:59:28Z</time>
            </trkpt>
            <trkpt lon="99.855458" lat="14.484087">
                <ele>36.670000</ele>
                <time>2014-05-25T02:59:55Z</time>
            </trkpt>
            <trkpt lon="99.855411" lat="14.483660">
                <ele>36.190000</ele>
                <time>2014-05-25T03:00:55Z</time>
            </trkpt>
            <trkpt lon="99.855922" lat="14.482274">
                <ele>37.150000</ele>
                <time>2014-05-25T03:02:26Z</time>
            </trkpt>
            <trkpt lon="99.855996" lat="14.481803">
                <ele>37.150000</ele>
                <time>2014-05-25T03:02:43Z</time>
            </trkpt>
            <trkpt lon="99.856396" lat="14.481344">
                <ele>37.150000</ele>
                <time>2014-05-25T03:03:09Z</time>
            </trkpt>
            <trkpt lon="99.856450" lat="14.481073">
                <ele>38.110000</ele>
                <time>2014-05-25T03:03:21Z</time>
            </trkpt>
            <trkpt lon="99.856460" lat="14.480835">
                <ele>37.630000</ele>
                <time>2014-05-25T03:03:33Z</time>
            </trkpt>
            <trkpt lon="99.857610" lat="14.480732">
                <ele>37.630000</ele>
                <time>2014-05-25T03:04:00Z</time>
            </trkpt>
            <trkpt lon="99.858085" lat="14.480460">
                <ele>37.150000</ele>
                <time>2014-05-25T03:04:10Z</time>
            </trkpt>
            <trkpt lon="99.858989" lat="14.480220">
                <ele>37.150000</ele>
                <time>2014-05-25T03:04:26Z</time>
            </trkpt>
            <trkpt lon="99.859611" lat="14.480035">
                <ele>36.670000</ele>
                <time>2014-05-25T03:04:37Z</time>
            </trkpt>
            <trkpt lon="99.860758" lat="14.480364">
                <ele>35.710000</ele>
                <time>2014-05-25T03:04:56Z</time>
            </trkpt>
            <trkpt lon="99.861465" lat="14.480259">
                <ele>35.710000</ele>
                <time>2014-05-25T03:05:07Z</time>
            </trkpt>
            <trkpt lon="99.863131" lat="14.479805">
                <ele>33.300000</ele>
                <time>2014-05-25T03:05:33Z</time>
            </trkpt>
            <trkpt lon="99.864977" lat="14.479842">
                <ele>30.900000</ele>
                <time>2014-05-25T03:05:59Z</time>
            </trkpt>
            <trkpt lon="99.866039" lat="14.480312">
                <ele>29.940000</ele>
                <time>2014-05-25T03:06:15Z</time>
            </trkpt>
            <trkpt lon="99.867242" lat="14.480409">
                <ele>28.980000</ele>
                <time>2014-05-25T03:06:32Z</time>
            </trkpt>
            <trkpt lon="99.868374" lat="14.479507">
                <ele>28.020000</ele>
                <time>2014-05-25T03:06:59Z</time>
            </trkpt>
            <trkpt lon="99.868719" lat="14.479073">
                <ele>28.500000</ele>
                <time>2014-05-25T03:07:09Z</time>
            </trkpt>
            <trkpt lon="99.867964" lat="14.477760">
                <ele>27.530000</ele>
                <time>2014-05-25T03:08:13Z</time>
            </trkpt>
            <trkpt lon="99.867762" lat="14.476915">
                <ele>27.530000</ele>
                <time>2014-05-25T03:08:34Z</time>
            </trkpt>
            <trkpt lon="99.867907" lat="14.476792">
                <ele>28.020000</ele>
                <time>2014-05-25T03:08:39Z</time>
            </trkpt>
            <trkpt lon="99.870156" lat="14.476214">
                <ele>26.570000</ele>
                <time>2014-05-25T03:09:26Z</time>
            </trkpt>
            <trkpt lon="99.870090" lat="14.476016">
                <ele>27.050000</ele>
                <time>2014-05-25T03:09:32Z</time>
            </trkpt>
            <trkpt lon="99.869473" lat="14.475410">
                <ele>27.050000</ele>
                <time>2014-05-25T03:09:49Z</time>
            </trkpt>
            <trkpt lon="99.869211" lat="14.474698">
                <ele>28.020000</ele>
                <time>2014-05-25T03:10:03Z</time>
            </trkpt>
            <trkpt lon="99.869071" lat="14.473690">
                <ele>27.530000</ele>
                <time>2014-05-25T03:10:21Z</time>
            </trkpt>
            <trkpt lon="99.868393" lat="14.471857">
                <ele>28.020000</ele>
                <time>2014-05-25T03:10:55Z</time>
            </trkpt>
            <trkpt lon="99.868663" lat="14.470555">
                <ele>27.530000</ele>
                <time>2014-05-25T03:11:18Z</time>
            </trkpt>
            <trkpt lon="99.866896" lat="14.469890">
                <ele>29.460000</ele>
                <time>2014-05-25T03:12:01Z</time>
            </trkpt>
            <trkpt lon="99.866657" lat="14.468626">
                <ele>29.460000</ele>
                <time>2014-05-25T03:12:31Z</time>
            </trkpt>
            <trkpt lon="99.867697" lat="14.468471">
                <ele>28.020000</ele>
                <time>2014-05-25T03:12:54Z</time>
            </trkpt>
            <trkpt lon="99.867685" lat="14.467628">
                <ele>28.500000</ele>
                <time>2014-05-25T03:13:34Z</time>
            </trkpt>
            <trkpt lon="99.867480" lat="14.467559">
                <ele>28.020000</ele>
                <time>2014-05-25T03:13:46Z</time>
            </trkpt>
            <trkpt lon="99.867544" lat="14.466824">
                <ele>28.980000</ele>
                <time>2014-05-25T03:14:07Z</time>
            </trkpt>
            <trkpt lon="99.867651" lat="14.466037">
                <ele>28.500000</ele>
                <time>2014-05-25T03:14:27Z</time>
            </trkpt>
            <trkpt lon="99.869262" lat="14.466612">
                <ele>27.050000</ele>
                <time>2014-05-25T03:15:47Z</time>
            </trkpt>
            <trkpt lon="99.869534" lat="14.466378">
                <ele>27.530000</ele>
                <time>2014-05-25T03:15:57Z</time>
            </trkpt>
            <trkpt lon="99.869650" lat="14.465411">
                <ele>27.530000</ele>
                <time>2014-05-25T03:16:17Z</time>
            </trkpt>
            <trkpt lon="99.869856" lat="14.465117">
                <ele>27.050000</ele>
                <time>2014-05-25T03:16:30Z</time>
            </trkpt>
            <trkpt lon="99.870346" lat="14.465283">
                <ele>27.050000</ele>
                <time>2014-05-25T03:16:41Z</time>
            </trkpt>
            <trkpt lon="99.870486" lat="14.465303">
                <ele>26.570000</ele>
                <time>2014-05-25T03:16:51Z</time>
            </trkpt>
            <trkpt lon="99.868252" lat="14.464798">
                <ele>28.020000</ele>
                <time>2014-05-25T03:19:29Z</time>
            </trkpt>
            <trkpt lon="99.868150" lat="14.464192">
                <ele>28.500000</ele>
                <time>2014-05-25T03:19:59Z</time>
            </trkpt>
            <trkpt lon="99.867940" lat="14.464030">
                <ele>28.500000</ele>
                <time>2014-05-25T03:20:08Z</time>
            </trkpt>
            <trkpt lon="99.867836" lat="14.461653">
                <ele>28.980000</ele>
                <time>2014-05-25T03:21:15Z</time>
            </trkpt>
            <trkpt lon="99.867889" lat="14.461047">
                <ele>28.980000</ele>
                <time>2014-05-25T03:21:34Z</time>
            </trkpt>
            <trkpt lon="99.868070" lat="14.460167">
                <ele>29.460000</ele>
                <time>2014-05-25T03:22:05Z</time>
            </trkpt>
            <trkpt lon="99.868459" lat="14.459881">
                <ele>29.460000</ele>
                <time>2014-05-25T03:22:14Z</time>
            </trkpt>
            <trkpt lon="99.868656" lat="14.459149">
                <ele>29.940000</ele>
                <time>2014-05-25T03:22:34Z</time>
            </trkpt>
            <trkpt lon="99.869627" lat="14.459013">
                <ele>29.460000</ele>
                <time>2014-05-25T03:22:57Z</time>
            </trkpt>
            <trkpt lon="99.869519" lat="14.457227">
                <ele>28.500000</ele>
                <time>2014-05-25T03:23:49Z</time>
            </trkpt>
            <trkpt lon="99.869501" lat="14.457484">
                <ele>28.500000</ele>
                <time>2014-05-25T03:24:07Z</time>
            </trkpt>
            <trkpt lon="99.869240" lat="14.457479">
                <ele>28.500000</ele>
                <time>2014-05-25T03:24:17Z</time>
            </trkpt>
            <trkpt lon="99.869036" lat="14.457242">
                <ele>28.020000</ele>
                <time>2014-05-25T03:24:41Z</time>
            </trkpt>
            <trkpt lon="99.869466" lat="14.457491">
                <ele>28.020000</ele>
                <time>2014-05-25T03:25:07Z</time>
            </trkpt>
            <trkpt lon="99.869561" lat="14.457049">
                <ele>28.980000</ele>
                <time>2014-05-25T03:25:19Z</time>
            </trkpt>
            <trkpt lon="99.869556" lat="14.455869">
                <ele>28.980000</ele>
                <time>2014-05-25T03:25:40Z</time>
            </trkpt>
            <trkpt lon="99.869423" lat="14.455440">
                <ele>28.980000</ele>
                <time>2014-05-25T03:25:50Z</time>
            </trkpt>
            <trkpt lon="99.869350" lat="14.455402">
                <ele>28.500000</ele>
                <time>2014-05-25T03:25:52Z</time>
            </trkpt>
            <trkpt lon="99.869532" lat="14.452453">
                <ele>28.980000</ele>
                <time>2014-05-25T03:29:47Z</time>
            </trkpt>
            <trkpt lon="99.869294" lat="14.451187">
                <ele>28.980000</ele>
                <time>2014-05-25T03:30:14Z</time>
            </trkpt>
            <trkpt lon="99.870085" lat="14.448674">
                <ele>28.980000</ele>
                <time>2014-05-25T03:40:16Z</time>
            </trkpt>
            <trkpt lon="99.869674" lat="14.448877">
                <ele>28.980000</ele>
                <time>2014-05-25T03:40:32Z</time>
            </trkpt>
            <trkpt lon="99.868914" lat="14.448435">
                <ele>28.980000</ele>
                <time>2014-05-25T03:41:01Z</time>
            </trkpt>
            <trkpt lon="99.868531" lat="14.448782">
                <ele>29.460000</ele>
                <time>2014-05-25T03:41:16Z</time>
            </trkpt>
            <trkpt lon="99.867833" lat="14.449079">
                <ele>30.900000</ele>
                <time>2014-05-25T03:41:46Z</time>
            </trkpt>
            <trkpt lon="99.867534" lat="14.448818">
                <ele>29.940000</ele>
                <time>2014-05-25T03:42:04Z</time>
            </trkpt>
            <trkpt lon="99.867213" lat="14.449066">
                <ele>29.940000</ele>
                <time>2014-05-25T03:42:15Z</time>
            </trkpt>
            <trkpt lon="99.866944" lat="14.449484">
                <ele>30.420000</ele>
                <time>2014-05-25T03:42:31Z</time>
            </trkpt>
            <trkpt lon="99.866719" lat="14.450798">
                <ele>29.940000</ele>
                <time>2014-05-25T03:43:16Z</time>
            </trkpt>
            <trkpt lon="99.866363" lat="14.450680">
                <ele>30.420000</ele>
                <time>2014-05-25T03:43:28Z</time>
            </trkpt>
            <trkpt lon="99.866091" lat="14.450778">
                <ele>29.940000</ele>
                <time>2014-05-25T03:43:39Z</time>
            </trkpt>
            <trkpt lon="99.865858" lat="14.451054">
                <ele>30.420000</ele>
                <time>2014-05-25T03:43:54Z</time>
            </trkpt>
            <trkpt lon="99.865134" lat="14.451468">
                <ele>31.380000</ele>
                <time>2014-05-25T03:48:32Z</time>
            </trkpt>
            <trkpt lon="99.864161" lat="14.452110">
                <ele>31.860000</ele>
                <time>2014-05-25T03:49:06Z</time>
            </trkpt>
            <trkpt lon="99.862696" lat="14.452464">
                <ele>32.340000</ele>
                <time>2014-05-25T03:49:53Z</time>
            </trkpt>
            <trkpt lon="99.862042" lat="14.452212">
                <ele>33.300000</ele>
                <time>2014-05-25T03:50:18Z</time>
            </trkpt>
            <trkpt lon="99.860389" lat="14.452449">
                <ele>33.780000</ele>
                <time>2014-05-25T03:51:33Z</time>
            </trkpt>
            <trkpt lon="99.859815" lat="14.452432">
                <ele>33.780000</ele>
                <time>2014-05-25T03:52:01Z</time>
            </trkpt>
            <trkpt lon="99.859339" lat="14.452693">
                <ele>33.300000</ele>
                <time>2014-05-25T03:52:29Z</time>
            </trkpt>
            <trkpt lon="99.859321" lat="14.453087">
                <ele>33.780000</ele>
                <time>2014-05-25T03:52:43Z</time>
            </trkpt>
            <trkpt lon="99.859283" lat="14.453284">
                <ele>33.300000</ele>
                <time>2014-05-25T03:52:50Z</time>
            </trkpt>
            <trkpt lon="99.858548" lat="14.453485">
                <ele>35.710000</ele>
                <time>2014-05-25T03:53:17Z</time>
            </trkpt>
            <trkpt lon="99.856060" lat="14.455664">
                <ele>36.190000</ele>
                <time>2014-05-25T03:54:23Z</time>
            </trkpt>
            <trkpt lon="99.855614" lat="14.455344">
                <ele>36.670000</ele>
                <time>2014-05-25T03:54:34Z</time>
            </trkpt>
            <trkpt lon="99.854594" lat="14.453790">
                <ele>37.630000</ele>
                <time>2014-05-25T03:55:08Z</time>
            </trkpt>
            <trkpt lon="99.854016" lat="14.453170">
                <ele>38.590000</ele>
                <time>2014-05-25T03:55:25Z</time>
            </trkpt>
            <trkpt lon="99.853569" lat="14.452966">
                <ele>39.550000</ele>
                <time>2014-05-25T03:55:35Z</time>
            </trkpt>
            <trkpt lon="99.852219" lat="14.453454">
                <ele>38.590000</ele>
                <time>2014-05-25T03:56:02Z</time>
            </trkpt>
            <trkpt lon="99.851838" lat="14.453709">
                <ele>39.070000</ele>
                <time>2014-05-25T03:56:11Z</time>
            </trkpt>
            <trkpt lon="99.851758" lat="14.453925">
                <ele>38.590000</ele>
                <time>2014-05-25T03:56:16Z</time>
            </trkpt>
            <trkpt lon="99.852091" lat="14.455589">
                <ele>38.590000</ele>
                <time>2014-05-25T03:56:47Z</time>
            </trkpt>
            <trkpt lon="99.852254" lat="14.455765">
                <ele>39.070000</ele>
                <time>2014-05-25T03:56:52Z</time>
            </trkpt>
            <trkpt lon="99.851160" lat="14.455193">
                <ele>40.510000</ele>
                <time>2014-05-25T04:09:39Z</time>
            </trkpt>
            <trkpt lon="99.850961" lat="14.455209">
                <ele>40.990000</ele>
                <time>2014-05-25T04:09:48Z</time>
            </trkpt>
            <trkpt lon="99.850644" lat="14.454517">
                <ele>40.990000</ele>
                <time>2014-05-25T04:10:19Z</time>
            </trkpt>
            <trkpt lon="99.850376" lat="14.454179">
                <ele>40.990000</ele>
                <time>2014-05-25T04:10:33Z</time>
            </trkpt>
            <trkpt lon="99.850006" lat="14.453968">
                <ele>41.950000</ele>
                <time>2014-05-25T04:10:47Z</time>
            </trkpt>
            <trkpt lon="99.849351" lat="14.453044">
                <ele>42.920000</ele>
                <time>2014-05-25T04:11:20Z</time>
            </trkpt>
            <trkpt lon="99.848819" lat="14.452760">
                <ele>42.440000</ele>
                <time>2014-05-25T04:11:36Z</time>
            </trkpt>
            <trkpt lon="99.848484" lat="14.452339">
                <ele>42.920000</ele>
                <time>2014-05-25T04:11:51Z</time>
            </trkpt>
            <trkpt lon="99.848359" lat="14.451866">
                <ele>43.400000</ele>
                <time>2014-05-25T04:12:04Z</time>
            </trkpt>
            <trkpt lon="99.848452" lat="14.451717">
                <ele>42.920000</ele>
                <time>2014-05-25T04:12:09Z</time>
            </trkpt>
            <trkpt lon="99.849059" lat="14.451607">
                <ele>42.920000</ele>
                <time>2014-05-25T04:12:21Z</time>
            </trkpt>
            <trkpt lon="99.850221" lat="14.451727">
                <ele>42.920000</ele>
                <time>2014-05-25T04:12:51Z</time>
            </trkpt>
            <trkpt lon="99.850445" lat="14.451720">
                <ele>42.440000</ele>
                <time>2014-05-25T04:12:57Z</time>
            </trkpt>
            <trkpt lon="99.850474" lat="14.451589">
                <ele>42.440000</ele>
                <time>2014-05-25T04:13:01Z</time>
            </trkpt>
            <trkpt lon="99.849149" lat="14.447515">
                <ele>47.240000</ele>
                <time>2014-05-25T04:14:35Z</time>
            </trkpt>
            <trkpt lon="99.851445" lat="14.446908">
                <ele>46.280000</ele>
                <time>2014-05-25T04:15:40Z</time>
            </trkpt>
            <trkpt lon="99.851404" lat="14.446086">
                <ele>46.760000</ele>
                <time>2014-05-25T04:16:14Z</time>
            </trkpt>
            <trkpt lon="99.851580" lat="14.445932">
                <ele>46.760000</ele>
                <time>2014-05-25T04:16:28Z</time>
            </trkpt>
            <trkpt lon="99.851577" lat="14.444028">
                <ele>48.680000</ele>
                <time>2014-05-25T04:17:21Z</time>
            </trkpt>
            <trkpt lon="99.851749" lat="14.443796">
                <ele>48.680000</ele>
                <time>2014-05-25T04:17:31Z</time>
            </trkpt>
            <trkpt lon="99.851748" lat="14.442906">
                <ele>51.570000</ele>
                <time>2014-05-25T04:17:58Z</time>
            </trkpt>
            <trkpt lon="99.851716" lat="14.442505">
                <ele>50.130000</ele>
                <time>2014-05-25T04:18:10Z</time>
            </trkpt>
            <trkpt lon="99.851529" lat="14.442256">
                <ele>53.490000</ele>
                <time>2014-05-25T04:18:21Z</time>
            </trkpt>
            <trkpt lon="99.851223" lat="14.442142">
                <ele>54.930000</ele>
                <time>2014-05-25T04:18:35Z</time>
            </trkpt>
            <trkpt lon="99.850558" lat="14.442100">
                <ele>55.890000</ele>
                <time>2014-05-25T04:18:54Z</time>
            </trkpt>
            <trkpt lon="99.848664" lat="14.443333">
                <ele>53.010000</ele>
                <time>2014-05-25T04:25:47Z</time>
            </trkpt>
            <trkpt lon="99.849226" lat="14.442816">
                <ele>53.010000</ele>
                <time>2014-05-25T04:26:05Z</time>
            </trkpt>
            <trkpt lon="99.850421" lat="14.442204">
                <ele>55.890000</ele>
                <time>2014-05-25T04:26:43Z</time>
            </trkpt>
            <trkpt lon="99.850557" lat="14.442117">
                <ele>55.890000</ele>
                <time>2014-05-25T04:26:50Z</time>
            </trkpt>
            <trkpt lon="99.850447" lat="14.442061">
                <ele>55.410000</ele>
                <time>2014-05-25T04:28:27Z</time>
            </trkpt>
            <trkpt lon="99.849583" lat="14.442557">
                <ele>52.530000</ele>
                <time>2014-05-25T04:29:24Z</time>
            </trkpt>
            <trkpt lon="99.848057" lat="14.443768">
                <ele>52.050000</ele>
                <time>2014-05-25T04:29:59Z</time>
            </trkpt>
            <trkpt lon="99.845684" lat="14.445365">
                <ele>53.970000</ele>
                <time>2014-05-25T04:30:52Z</time>
            </trkpt>
            <trkpt lon="99.843389" lat="14.445838">
                <ele>53.970000</ele>
                <time>2014-05-25T04:31:39Z</time>
            </trkpt>
            <trkpt lon="99.841728" lat="14.446410">
                <ele>54.450000</ele>
                <time>2014-05-25T04:32:13Z</time>
            </trkpt>
            <trkpt lon="99.841538" lat="14.446466">
                <ele>53.970000</ele>
                <time>2014-05-25T04:32:17Z</time>
            </trkpt>
            <trkpt lon="99.839715" lat="14.445778">
                <ele>56.860000</ele>
                <time>2014-05-25T04:32:56Z</time>
            </trkpt>
            <trkpt lon="99.838890" lat="14.446004">
                <ele>57.340000</ele>
                <time>2014-05-25T04:33:13Z</time>
            </trkpt>
            <trkpt lon="99.837603" lat="14.446434">
                <ele>56.370000</ele>
                <time>2014-05-25T04:33:40Z</time>
            </trkpt>
            <trkpt lon="99.837248" lat="14.446920">
                <ele>56.370000</ele>
                <time>2014-05-25T04:33:52Z</time>
            </trkpt>
            <trkpt lon="99.836951" lat="14.447814">
                <ele>55.890000</ele>
                <time>2014-05-25T04:34:11Z</time>
            </trkpt>
            <trkpt lon="99.836334" lat="14.448066">
                <ele>63.580000</ele>
                <time>2014-05-25T04:34:50Z</time>
            </trkpt>
            <trkpt lon="99.836727" lat="14.448745">
                <ele>62.620000</ele>
                <time>2014-05-25T04:35:17Z</time>
            </trkpt>
            <trkpt lon="99.836968" lat="14.449096">
                <ele>58.780000</ele>
                <time>2014-05-25T04:35:25Z</time>
            </trkpt>
            <trkpt lon="99.837245" lat="14.450707">
                <ele>57.340000</ele>
                <time>2014-05-25T04:36:22Z</time>
            </trkpt>
            <trkpt lon="99.837153" lat="14.449592">
                <ele>56.860000</ele>
                <time>2014-05-25T04:37:13Z</time>
            </trkpt>
            <trkpt lon="99.839957" lat="14.449133">
                <ele>53.010000</ele>
                <time>2014-05-25T04:38:15Z</time>
            </trkpt>
            <trkpt lon="99.839855" lat="14.449528">
                <ele>52.050000</ele>
                <time>2014-05-25T04:38:23Z</time>
            </trkpt>
            <trkpt lon="99.840867" lat="14.450605">
                <ele>53.490000</ele>
                <time>2014-05-25T04:39:02Z</time>
            </trkpt>
            <trkpt lon="99.841429" lat="14.450523">
                <ele>52.530000</ele>
                <time>2014-05-25T04:39:15Z</time>
            </trkpt>
            <trkpt lon="99.843397" lat="14.450668">
                <ele>51.090000</ele>
                <time>2014-05-25T04:39:54Z</time>
            </trkpt>
            <trkpt lon="99.843890" lat="14.450717">
                <ele>49.650000</ele>
                <time>2014-05-25T04:40:02Z</time>
            </trkpt>
            <trkpt lon="99.845527" lat="14.451443">
                <ele>47.720000</ele>
                <time>2014-05-25T04:40:32Z</time>
            </trkpt>
            <trkpt lon="99.845932" lat="14.452040">
                <ele>48.200000</ele>
                <time>2014-05-25T04:40:44Z</time>
            </trkpt>
            <trkpt lon="99.846168" lat="14.453011">
                <ele>48.200000</ele>
                <time>2014-05-25T04:41:01Z</time>
            </trkpt>
            <trkpt lon="99.846490" lat="14.453627">
                <ele>49.160000</ele>
                <time>2014-05-25T04:41:13Z</time>
            </trkpt>
            <trkpt lon="99.846525" lat="14.453821">
                <ele>48.680000</ele>
                <time>2014-05-25T04:41:17Z</time>
            </trkpt>
            <trkpt lon="99.846473" lat="14.454619">
                <ele>47.240000</ele>
                <time>2014-05-25T04:41:33Z</time>
            </trkpt>
            <trkpt lon="99.846279" lat="14.454849">
                <ele>47.720000</ele>
                <time>2014-05-25T04:41:44Z</time>
            </trkpt>
            <trkpt lon="99.844192" lat="14.455480">
                <ele>54.450000</ele>
                <time>2014-05-25T04:43:00Z</time>
            </trkpt>
            <trkpt lon="99.843976" lat="14.455893">
                <ele>54.450000</ele>
                <time>2014-05-25T04:43:12Z</time>
            </trkpt>
            <trkpt lon="99.843932" lat="14.456803">
                <ele>52.050000</ele>
                <time>2014-05-25T04:43:32Z</time>
            </trkpt>
            <trkpt lon="99.843395" lat="14.457400">
                <ele>53.490000</ele>
                <time>2014-05-25T04:43:56Z</time>
            </trkpt>
            <trkpt lon="99.844187" lat="14.460029">
                <ele>50.130000</ele>
                <time>2014-05-25T04:44:56Z</time>
            </trkpt>
            <trkpt lon="99.843642" lat="14.460338">
                <ele>51.570000</ele>
                <time>2014-05-25T04:45:13Z</time>
            </trkpt>
            <trkpt lon="99.843581" lat="14.460505">
                <ele>51.090000</ele>
                <time>2014-05-25T04:45:18Z</time>
            </trkpt>
            <trkpt lon="99.844639" lat="14.462502">
                <ele>51.570000</ele>
                <time>2014-05-25T04:46:02Z</time>
            </trkpt>
            <trkpt lon="99.843960" lat="14.463082">
                <ele>52.530000</ele>
                <time>2014-05-25T04:46:25Z</time>
            </trkpt>
            <trkpt lon="99.843210" lat="14.464044">
                <ele>54.930000</ele>
                <time>2014-05-25T04:46:54Z</time>
            </trkpt>
            <trkpt lon="99.841917" lat="14.464246">
                <ele>56.860000</ele>
                <time>2014-05-25T04:47:26Z</time>
            </trkpt>
            <trkpt lon="99.841586" lat="14.464599">
                <ele>58.300000</ele>
                <time>2014-05-25T04:47:40Z</time>
            </trkpt>
            <trkpt lon="99.841392" lat="14.465292">
                <ele>60.700000</ele>
                <time>2014-05-25T04:48:01Z</time>
            </trkpt>
            <trkpt lon="99.841120" lat="14.466347">
                <ele>63.580000</ele>
                <time>2014-05-25T04:48:35Z</time>
            </trkpt>
            <trkpt lon="99.840939" lat="14.466596">
                <ele>65.990000</ele>
                <time>2014-05-25T04:48:49Z</time>
            </trkpt>
            <trkpt lon="99.840290" lat="14.466952">
                <ele>71.760000</ele>
                <time>2014-05-25T04:49:25Z</time>
            </trkpt>
            <trkpt lon="99.839957" lat="14.467241">
                <ele>73.200000</ele>
                <time>2014-05-25T04:49:42Z</time>
            </trkpt>
            <trkpt lon="99.839395" lat="14.468365">
                <ele>76.080000</ele>
                <time>2014-05-25T04:51:04Z</time>
            </trkpt>
            <trkpt lon="99.839406" lat="14.468371">
                <ele>76.080000</ele>
                <time>2014-05-25T04:51:05Z</time>
            </trkpt>
            <trkpt lon="99.840101" lat="14.467081">
                <ele>73.680000</ele>
                <time>2014-05-25T04:51:51Z</time>
            </trkpt>
            <trkpt lon="99.840474" lat="14.466858">
                <ele>71.760000</ele>
                <time>2014-05-25T04:52:00Z</time>
            </trkpt>
            <trkpt lon="99.842495" lat="14.468498">
                <ele>69.830000</ele>
                <time>2014-05-25T04:53:24Z</time>
            </trkpt>
            <trkpt lon="99.844253" lat="14.466722">
                <ele>61.660000</ele>
                <time>2014-05-25T04:54:05Z</time>
            </trkpt>
            <trkpt lon="99.845306" lat="14.466036">
                <ele>58.300000</ele>
                <time>2014-05-25T04:54:24Z</time>
            </trkpt>
            <trkpt lon="99.845412" lat="14.465994">
                <ele>56.860000</ele>
                <time>2014-05-25T04:54:31Z</time>
            </trkpt>
            <trkpt lon="99.845076" lat="14.464807">
                <ele>54.930000</ele>
                <time>2014-05-25T04:55:10Z</time>
            </trkpt>
            <trkpt lon="99.845142" lat="14.464229">
                <ele>54.450000</ele>
                <time>2014-05-25T04:55:21Z</time>
            </trkpt>
            <trkpt lon="99.845870" lat="14.463522">
                <ele>53.010000</ele>
                <time>2014-05-25T04:55:38Z</time>
            </trkpt>
            <trkpt lon="99.845944" lat="14.463112">
                <ele>52.530000</ele>
                <time>2014-05-25T04:55:45Z</time>
            </trkpt>
            <trkpt lon="99.846601" lat="14.461917">
                <ele>51.090000</ele>
                <time>2014-05-25T04:56:08Z</time>
            </trkpt>
            <trkpt lon="99.846664" lat="14.461519">
                <ele>49.650000</ele>
                <time>2014-05-25T04:56:17Z</time>
            </trkpt>
            <trkpt lon="99.849141" lat="14.460571">
                <ele>45.800000</ele>
                <time>2014-05-25T04:57:03Z</time>
            </trkpt>
            <trkpt lon="99.851808" lat="14.460518">
                <ele>44.360000</ele>
                <time>2014-05-25T04:57:38Z</time>
            </trkpt>
            <trkpt lon="99.853137" lat="14.460880">
                <ele>43.400000</ele>
                <time>2014-05-25T04:57:56Z</time>
            </trkpt>
            <trkpt lon="99.853891" lat="14.460816">
                <ele>43.880000</ele>
                <time>2014-05-25T04:58:06Z</time>
            </trkpt>
            <trkpt lon="99.854094" lat="14.460701">
                <ele>42.920000</ele>
                <time>2014-05-25T04:58:09Z</time>
            </trkpt>
            <trkpt lon="99.855628" lat="14.459209">
                <ele>41.470000</ele>
                <time>2014-05-25T04:58:39Z</time>
            </trkpt>
            <trkpt lon="99.855744" lat="14.458773">
                <ele>41.470000</ele>
                <time>2014-05-25T04:58:46Z</time>
            </trkpt>
            <trkpt lon="99.855643" lat="14.457338">
                <ele>40.030000</ele>
                <time>2014-05-25T04:59:18Z</time>
            </trkpt>
            <trkpt lon="99.855663" lat="14.459046">
                <ele>40.510000</ele>
                <time>2014-05-25T05:00:22Z</time>
            </trkpt>
            <trkpt lon="99.854638" lat="14.460233">
                <ele>41.950000</ele>
                <time>2014-05-25T05:00:53Z</time>
            </trkpt>
            <trkpt lon="99.854634" lat="14.460279">
                <ele>41.470000</ele>
                <time>2014-05-25T05:00:54Z</time>
            </trkpt>
            <trkpt lon="99.855642" lat="14.461396">
                <ele>41.470000</ele>
                <time>2014-05-25T05:01:23Z</time>
            </trkpt>
            <trkpt lon="99.856126" lat="14.462133">
                <ele>41.470000</ele>
                <time>2014-05-25T05:01:40Z</time>
            </trkpt>
            <trkpt lon="99.856907" lat="14.463966">
                <ele>43.400000</ele>
                <time>2014-05-25T05:02:19Z</time>
            </trkpt>
            <trkpt lon="99.857204" lat="14.464138">
                <ele>43.400000</ele>
                <time>2014-05-25T05:02:26Z</time>
            </trkpt>
            <trkpt lon="99.859312" lat="14.464263">
                <ele>41.950000</ele>
                <time>2014-05-25T05:03:02Z</time>
            </trkpt>
            <trkpt lon="99.861463" lat="14.464058">
                <ele>38.590000</ele>
                <time>2014-05-25T05:03:33Z</time>
            </trkpt>
            <trkpt lon="99.862584" lat="14.463814">
                <ele>37.630000</ele>
                <time>2014-05-25T05:04:05Z</time>
            </trkpt>
            <trkpt lon="99.862870" lat="14.466613">
                <ele>39.550000</ele>
                <time>2014-05-25T05:05:05Z</time>
            </trkpt>
            <trkpt lon="99.863531" lat="14.468329">
                <ele>40.030000</ele>
                <time>2014-05-25T05:05:40Z</time>
            </trkpt>
            <trkpt lon="99.863623" lat="14.468722">
                <ele>40.510000</ele>
                <time>2014-05-25T05:05:49Z</time>
            </trkpt>
            <trkpt lon="99.863526" lat="14.468979">
                <ele>42.920000</ele>
                <time>2014-05-25T05:06:02Z</time>
            </trkpt>
            <trkpt lon="99.863658" lat="14.468740">
                <ele>40.990000</ele>
                <time>2014-05-25T05:06:23Z</time>
            </trkpt>
            <trkpt lon="99.864018" lat="14.468663">
                <ele>39.550000</ele>
                <time>2014-05-25T05:06:29Z</time>
            </trkpt>
            <trkpt lon="99.864141" lat="14.468721">
                <ele>38.590000</ele>
                <time>2014-05-25T05:06:32Z</time>
            </trkpt>
            <trkpt lon="99.865216" lat="14.473704">
                <ele>36.670000</ele>
                <time>2014-05-25T05:07:54Z</time>
            </trkpt>
            <trkpt lon="99.866649" lat="14.477641">
                <ele>34.260000</ele>
                <time>2014-05-25T05:08:55Z</time>
            </trkpt>
            <trkpt lon="99.867411" lat="14.480384">
                <ele>32.340000</ele>
                <time>2014-05-25T05:09:40Z</time>
            </trkpt>
            <trkpt lon="99.865931" lat="14.480265">
                <ele>32.340000</ele>
                <time>2014-05-25T05:10:09Z</time>
            </trkpt>
            <trkpt lon="99.864680" lat="14.479786">
                <ele>34.260000</ele>
                <time>2014-05-25T05:10:36Z</time>
            </trkpt>
            <trkpt lon="99.862821" lat="14.479849">
                <ele>36.190000</ele>
                <time>2014-05-25T05:11:12Z</time>
            </trkpt>
            <trkpt lon="99.861122" lat="14.480333">
                <ele>38.110000</ele>
                <time>2014-05-25T05:11:46Z</time>
            </trkpt>
            <trkpt lon="99.859565" lat="14.480040">
                <ele>39.550000</ele>
                <time>2014-05-25T05:12:19Z</time>
            </trkpt>
            <trkpt lon="99.857052" lat="14.480826">
                <ele>40.990000</ele>
                <time>2014-05-25T05:13:12Z</time>
            </trkpt>
            <trkpt lon="99.855665" lat="14.480568">
                <ele>42.440000</ele>
                <time>2014-05-25T05:13:44Z</time>
            </trkpt>
            <trkpt lon="99.855289" lat="14.482153">
                <ele>40.990000</ele>
                <time>2014-05-25T05:14:17Z</time>
            </trkpt>
            <trkpt lon="99.854970" lat="14.482532">
                <ele>41.470000</ele>
                <time>2014-05-25T05:14:28Z</time>
            </trkpt>
            <trkpt lon="99.854804" lat="14.483377">
                <ele>40.510000</ele>
                <time>2014-05-25T05:14:46Z</time>
            </trkpt>
            <trkpt lon="99.854636" lat="14.483549">
                <ele>40.510000</ele>
                <time>2014-05-25T05:14:53Z</time>
            </trkpt>
            <trkpt lon="99.853698" lat="14.483427">
                <ele>41.950000</ele>
                <time>2014-05-25T05:15:22Z</time>
            </trkpt>
            <trkpt lon="99.853680" lat="14.483416">
                <ele>40.990000</ele>
                <time>2014-05-25T05:15:33Z</time>
            </trkpt>
            <trkpt lon="99.853672" lat="14.483418">
                <ele>37.630000</ele>
                <time>2014-05-25T05:17:10Z</time>
            </trkpt>
        </trkseg>
    </trk>
</gpx>